Time;durP1;ratioP1;P1;durP2;ratioP2;P2;SDS_P1;SDS_P2;PMS_P1;PMS_P2;Temp;Humidity;BMP_temperature;BMP_pressure;BME280_temperature;BME280_humidity;BME280_pressure;Samples;Min_cycle;Max_cycle;Signal;HPM_P1;HPM_P2
2021/08/15 00:02:38;;;;;;;20.05;14.55;;;27.10;63.90;;;;;;6106489;28;83035;-61
2021/08/15 00:05:39;;;;;;;21.98;14.07;;;27.10;63.80;;;;;;6109629;28;83159;-61
2021/08/15 00:08:39;;;;;;;18.58;14.02;;;27.10;63.80;;;;;;6108011;28;84049;-61
2021/08/15 00:11:39;;;;;;;20.58;14.18;;;27.10;63.80;;;;;;6109438;28;82852;-61
2021/08/15 00:14:40;;;;;;;24.80;14.27;;;27.10;63.70;;;;;;6107858;28;84321;-61
2021/08/15 00:17:40;;;;;;;17.67;14.13;;;27.10;63.80;;;;;;6106219;28;89116;-61
2021/08/15 00:20:41;;;;;;;17.45;14.07;;;27.10;64.00;;;;;;6098617;28;83427;-61
2021/08/15 00:23:41;;;;;;;19.73;14.13;;;27.10;63.90;;;;;;6109228;28;84116;-61
2021/08/15 00:26:42;;;;;;;19.95;14.35;;;27.10;63.90;;;;;;6091091;28;83074;-62
2021/08/15 00:29:43;;;;;;;19.38;13.93;;;27.10;63.70;;;;;;6090079;28;85693;-62
2021/08/15 00:32:43;;;;;;;21.27;14.13;;;27.00;63.70;;;;;;6109029;28;83594;-61
2021/08/15 00:35:44;;;;;;;21.40;15.05;;;27.00;63.70;;;;;;6106952;28;84501;-62
2021/08/15 00:38:44;;;;;;;20.23;14.13;;;27.00;64.50;;;;;;6108935;28;83167;-62
2021/08/15 00:41:44;;;;;;;22.42;14.48;;;27.00;63.50;;;;;;6108478;28;84127;-62
2021/08/15 00:44:45;;;;;;;17.73;13.40;;;27.10;63.60;;;;;;6107776;28;83459;-62
2021/08/15 00:47:45;;;;;;;21.65;13.98;;;27.00;63.60;;;;;;6107116;28;90439;-62
2021/08/15 00:50:46;;;;;;;18.90;13.95;;;27.00;63.40;;;;;;6108341;28;84237;-62
2021/08/15 00:53:47;;;;;;;16.15;12.73;;;27.00;63.50;;;;;;6109118;28;83017;-61
2021/08/15 00:56:47;;;;;;;17.25;13.10;;;27.00;63.60;;;;;;6108741;28;83362;-62
2021/08/15 00:59:48;;;;;;;19.08;13.48;;;27.00;63.60;;;;;;6109026;28;83204;-62
2021/08/15 01:02:48;;;;;;;17.63;13.23;;;26.90;63.40;;;;;;6108211;28;83021;-62
2021/08/15 01:05:49;;;;;;;18.13;14.02;;;27.00;63.60;;;;;;6108456;28;83075;-62
2021/08/15 01:08:49;;;;;;;20.10;14.43;;;27.00;63.50;;;;;;6091629;28;83167;-62
2021/08/15 01:11:50;;;;;;;17.58;12.75;;;27.00;63.40;;;;;;6105601;28;84250;-62
2021/08/15 01:14:50;;;;;;;17.15;13.38;;;27.00;63.40;;;;;;6104407;28;83017;-62
2021/08/15 01:17:50;;;;;;;18.02;12.95;;;26.90;62.80;;;;;;6107006;28;89384;-62
2021/08/15 01:20:51;;;;;;;17.92;13.57;;;27.00;62.90;;;;;;6107585;28;83345;-62
2021/08/15 01:23:51;;;;;;;19.15;13.27;;;27.00;62.80;;;;;;6108495;28;84044;-62
2021/08/15 01:26:52;;;;;;;18.77;13.05;;;26.90;62.60;;;;;;6108190;28;83097;-62
2021/08/15 01:29:52;;;;;;;16.20;12.20;;;27.00;62.90;;;;;;6106864;28;82899;-62
2021/08/15 01:32:53;;;;;;;16.40;12.57;;;27.00;63.10;;;;;;6109179;28;83040;-62
2021/08/15 01:35:53;;;;;;;20.77;12.68;;;27.00;63.00;;;;;;6104623;28;83124;-62
2021/08/15 01:38:54;;;;;;;21.08;13.10;;;27.00;62.80;;;;;;6106647;28;84133;-62
2021/08/15 01:41:54;;;;;;;20.55;13.30;;;27.00;62.70;;;;;;6106807;28;83211;-62
2021/08/15 01:44:55;;;;;;;15.52;11.68;;;27.00;62.70;;;;;;6108298;28;85025;-63
2021/08/15 01:47:55;;;;;;;16.55;12.73;;;26.90;62.30;;;;;;6105724;28;82995;-62
2021/08/15 01:50:56;;;;;;;16.45;12.15;;;26.90;62.40;;;;;;6107036;28;89121;-62
2021/08/15 01:53:56;;;;;;;19.63;12.70;;;26.90;62.60;;;;;;6106168;28;83260;-62
2021/08/15 01:56:57;;;;;;;15.88;11.85;;;26.90;62.60;;;;;;6108216;28;83194;-62
2021/08/15 01:59:57;;;;;;;18.73;12.90;;;26.90;62.80;;;;;;6107054;28;83250;-62
2021/08/15 02:02:58;;;;;;;18.55;12.75;;;26.90;62.50;;;;;;6107701;28;86204;-61
2021/08/15 02:05:58;;;;;;;16.58;12.32;;;26.90;62.40;;;;;;6106580;28;83002;-62
2021/08/15 02:08:59;;;;;;;16.27;12.65;;;26.90;62.30;;;;;;6105741;28;86074;-62
2021/08/15 02:12:02;;;;;;;16.50;12.52;;;26.90;62.30;;;;;;6106796;28;83295;-62
2021/08/15 02:15:02;;;;;;;17.05;12.30;;;26.90;62.50;;;;;;6106382;28;83223;-62
2021/08/15 02:18:02;;;;;;;16.35;11.68;;;26.90;62.20;;;;;;6105533;28;82927;-62
2021/08/15 02:21:03;;;;;;;15.30;12.15;;;26.90;62.20;;;;;;6104791;28;83220;-62
2021/08/15 02:24:03;;;;;;;15.25;12.35;;;26.90;62.20;;;;;;6104642;28;83688;-62
2021/08/15 02:27:04;;;;;;;17.55;11.80;;;26.90;62.00;;;;;;6098702;28;84006;-62
2021/08/15 02:30:04;;;;;;;14.60;11.50;;;26.80;61.80;;;;;;6068799;28;82937;-62
2021/08/15 02:33:05;;;;;;;18.38;12.25;;;26.90;62.20;;;;;;6080651;28;83598;-62
2021/08/15 02:36:05;;;;;;;14.63;11.85;;;26.80;61.90;;;;;;6082071;28;83032;-62
2021/08/15 02:39:06;;;;;;;17.10;11.63;;;26.80;61.90;;;;;;6081902;28;84657;-62
2021/08/15 02:42:06;;;;;;;18.70;11.88;;;26.90;61.90;;;;;;6081095;28;84824;-62
2021/08/15 02:45:07;;;;;;;15.50;11.65;;;26.80;61.80;;;;;;6076733;28;84069;-62
2021/08/15 02:48:07;;;;;;;17.73;11.93;;;26.90;62.10;;;;;;6080042;28;84151;-63
2021/08/15 02:51:08;;;;;;;17.98;10.88;;;26.90;61.90;;;;;;6081002;28;84007;-62
2021/08/15 02:54:08;;;;;;;15.90;11.48;;;26.90;62.00;;;;;;6079278;28;84630;-62
2021/08/15 02:57:09;;;;;;;16.67;12.15;;;26.80;61.80;;;;;;6080892;28;83673;-62
2021/08/15 03:00:09;;;;;;;16.42;12.25;;;26.80;62.00;;;;;;6079278;28;83080;-62
2021/08/15 03:03:10;;;;;;;15.85;12.00;;;26.80;61.90;;;;;;6080211;28;83499;-62
2021/08/15 03:06:10;;;;;;;16.27;11.80;;;26.80;61.80;;;;;;6088608;28;84180;-62
2021/08/15 03:09:11;;;;;;;15.45;11.75;;;26.70;61.70;;;;;;6106284;28;83125;-62
2021/08/15 03:12:11;;;;;;;15.23;11.18;;;26.70;61.80;;;;;;6105008;28;83479;-62
2021/08/15 03:15:11;;;;;;;14.02;11.35;;;26.70;61.60;;;;;;6103153;28;83030;-62
2021/08/15 03:18:16;;;;;;;16.92;11.75;;;26.70;61.80;;;;;;6103644;28;82922;-62
2021/08/15 03:21:17;;;;;;;13.02;10.95;;;26.70;61.60;;;;;;6105155;28;83760;-62
2021/08/15 03:24:17;;;;;;;15.30;11.43;;;26.70;61.50;;;;;;6105840;28;83905;-62
2021/08/15 03:27:18;;;;;;;15.93;11.15;;;26.70;61.60;;;;;;6100686;28;84846;-63
2021/08/15 03:30:18;;;;;;;15.02;11.57;;;26.80;61.60;;;;;;6106389;28;83096;-63
2021/08/15 03:33:19;;;;;;;14.25;11.48;;;26.80;61.80;;;;;;6104480;28;83097;-62
2021/08/15 03:36:19;;;;;;;12.65;10.52;;;26.80;61.80;;;;;;6109073;28;83996;-62
2021/08/15 03:39:21;;;;;;;15.55;11.50;;;26.80;61.70;;;;;;6108656;28;82727;-62
2021/08/15 03:42:21;;;;;;;17.10;11.60;;;26.80;61.70;;;;;;6109028;28;83114;-62
2021/08/15 03:45:22;;;;;;;15.05;11.82;;;26.80;61.40;;;;;;6109939;28;83805;-62
2021/08/15 03:48:22;;;;;;;16.15;11.57;;;26.90;61.40;;;;;;6107951;28;83039;-62
2021/08/15 03:51:23;;;;;;;16.25;11.85;;;26.80;61.60;;;;;;6095364;28;83020;-62
2021/08/15 03:54:23;;;;;;;19.42;12.52;;;26.90;61.70;;;;;;6106689;28;83212;-62
2021/08/15 03:57:24;;;;;;;17.80;13.00;;;26.80;61.60;;;;;;6108334;28;83462;-62
2021/08/15 04:00:24;;;;;;;14.90;12.07;;;26.80;62.00;;;;;;6108821;28;82885;-62
2021/08/15 04:03:25;;;;;;;19.25;12.85;;;26.80;61.30;;;;;;6097526;28;83254;-61
2021/08/15 04:06:27;;;;;;;16.15;11.60;;;26.80;60.90;;;;;;6066810;28;83510;-62
2021/08/15 04:09:27;;;;;;;19.02;11.98;;;26.70;60.70;;;;;;6084138;28;85273;-61
2021/08/15 04:12:28;;;;;;;14.75;11.50;;;26.70;60.80;;;;;;6083753;28;82999;-62
2021/08/15 04:15:28;;;;;;;16.15;11.68;;;26.70;61.20;;;;;;6082535;28;84482;-61
2021/08/15 04:18:29;;;;;;;18.65;11.45;;;26.70;61.20;;;;;;6094294;28;86295;-61
2021/08/15 04:21:29;;;;;;;15.07;11.20;;;26.70;61.10;;;;;;6108463;28;82837;-62
2021/08/15 04:24:30;;;;;;;18.55;11.82;;;26.70;61.80;;;;;;6102166;28;83417;-62
2021/08/15 04:27:30;;;;;;;18.23;12.23;;;26.70;61.00;;;;;;6094199;28;82897;-61
2021/08/15 04:30:31;;;;;;;18.30;11.80;;;26.70;61.10;;;;;;6111494;28;83477;-61
2021/08/15 04:33:31;;;;;;;15.90;12.45;;;26.70;61.20;;;;;;6099754;28;83295;-60
2021/08/15 04:36:32;;;;;;;15.88;12.20;;;26.70;61.30;;;;;;6086992;28;83136;-61
2021/08/15 04:39:32;;;;;;;19.95;12.80;;;26.70;61.30;;;;;;6081910;28;83109;-60
2021/08/15 04:42:33;;;;;;;16.65;12.02;;;26.70;61.40;;;;;;6082848;28;83227;-61
2021/08/15 04:45:34;;;;;;;15.68;12.25;;;26.70;61.30;;;;;;6081720;28;85851;-60
2021/08/15 04:48:34;;;;;;;17.25;11.77;;;26.70;61.40;;;;;;6082032;28;82885;-61
2021/08/15 04:51:35;;;;;;;18.60;11.90;;;26.70;61.30;;;;;;6084678;28;83348;-63
2021/08/15 04:54:35;;;;;;;18.20;12.82;;;26.70;61.50;;;;;;6081835;28;85331;-63
2021/08/15 04:57:36;;;;;;;18.85;11.82;;;26.70;61.50;;;;;;6083331;28;84004;-62
2021/08/15 05:00:36;;;;;;;18.33;12.35;;;26.80;61.80;;;;;;6096054;28;84100;-63
2021/08/15 05:03:37;;;;;;;27.85;13.15;;;26.80;61.80;;;;;;6109296;28;82936;-64
2021/08/15 05:06:37;;;;;;;121.22;43.13;;;26.80;61.60;;;;;;6108944;28;83064;-63
2021/08/15 05:09:38;;;;;;;394.35;130.98;;;26.80;61.90;;;;;;6104550;28;83136;-62
2021/08/15 05:12:38;;;;;;;492.77;173.35;;;26.80;64.20;;;;;;6095929;28;85484;-63
2021/08/15 05:15:39;;;;;;;433.40;147.15;;;26.90;63.00;;;;;;6089752;28;86400;-63
2021/08/15 05:18:39;;;;;;;371.63;127.72;;;26.90;66.10;;;;;;6104430;28;85929;-63
2021/08/15 05:21:40;;;;;;;353.20;123.95;;;26.90;65.80;;;;;;6103894;28;85536;-64
2021/08/15 05:24:40;;;;;;;322.85;115.22;;;27.00;65.00;;;;;;6106715;28;85866;-63
2021/08/15 05:27:41;;;;;;;289.35;103.68;;;27.00;65.00;;;;;;6087613;28;86994;-62
2021/08/15 05:30:41;;;;;;;270.35;96.35;;;27.00;65.00;;;;;;6100926;28;87446;-62
2021/08/15 05:33:42;;;;;;;220.68;82.60;;;27.00;65.20;;;;;;6106940;28;85430;-63
2021/08/15 05:36:42;;;;;;;225.63;82.43;;;27.10;65.50;;;;;;6106330;28;83252;-65
2021/08/15 05:39:42;;;;;;;176.77;66.00;;;27.10;65.00;;;;;;6087904;28;84036;-63
2021/08/15 05:42:43;;;;;;;165.30;60.03;;;27.10;65.50;;;;;;6099216;28;83564;-64
2021/08/15 05:45:43;;;;;;;139.93;53.25;;;27.20;65.70;;;;;;6090244;28;83282;-64
2021/08/15 05:48:44;;;;;;;128.15;48.88;;;27.20;65.40;;;;;;6084267;28;83038;-64
2021/08/15 05:51:44;;;;;;;108.78;45.50;;;27.20;65.30;;;;;;6086489;28;84281;-63
2021/08/15 05:54:45;;;;;;;108.03;42.83;;;27.20;65.50;;;;;;6085764;28;83013;-63
2021/08/15 05:57:45;;;;;;;91.18;35.75;;;27.20;65.20;;;;;;6086499;28;84026;-63
2021/08/15 06:00:46;;;;;;;78.25;32.20;;;27.20;64.90;;;;;;6104754;28;83831;-63
2021/08/15 06:03:46;;;;;;;74.00;30.95;;;27.10;65.10;;;;;;6107968;28;83180;-63
2021/08/15 06:06:47;;;;;;;65.30;27.45;;;27.10;65.20;;;;;;6068414;28;86244;-63
2021/08/15 06:09:48;;;;;;;55.00;26.58;;;27.10;65.20;;;;;;6083087;28;83307;-63
2021/08/15 06:12:48;;;;;;;58.33;23.45;;;27.10;65.30;;;;;;6081430;28;85624;-64
2021/08/15 06:15:49;;;;;;;42.92;22.50;;;27.20;65.10;;;;;;6074266;28;83379;-63
2021/08/15 06:18:49;;;;;;;36.63;19.77;;;27.20;64.90;;;;;;6083284;28;83011;-64
2021/08/15 06:21:50;;;;;;;32.58;16.40;;;27.20;64.60;;;;;;6084549;28;83487;-64
2021/08/15 06:24:50;;;;;;;36.78;21.42;;;27.20;65.50;;;;;;6080051;28;83206;-63
2021/08/15 06:27:51;;;;;;;33.90;18.38;;;27.10;67.00;;;;;;6083853;28;83678;-63
2021/08/15 06:30:51;;;;;;;31.85;16.17;;;27.10;66.90;;;;;;6083264;28;83998;-64
2021/08/15 06:33:52;;;;;;;32.03;15.93;;;27.20;67.10;;;;;;6083995;28;83211;-63
2021/08/15 06:36:52;;;;;;;28.60;17.02;;;27.10;66.70;;;;;;6083182;28;83242;-63
2021/08/15 06:39:52;;;;;;;26.70;17.35;;;27.20;66.90;;;;;;6079672;28;83105;-63
2021/08/15 06:42:53;;;;;;;27.38;17.10;;;27.20;69.40;;;;;;6081695;28;83526;-63
2021/08/15 06:45:54;;;;;;;27.50;16.02;;;27.20;68.30;;;;;;6082963;28;83049;-64
2021/08/15 06:48:55;;;;;;;25.58;16.35;;;27.30;68.40;;;;;;6084743;28;83205;-64
2021/08/15 06:51:55;;;;;;;28.77;15.63;;;27.30;68.20;;;;;;6084525;28;83049;-64
2021/08/15 06:54:56;;;;;;;21.25;14.73;;;27.30;68.00;;;;;;6089471;28;83304;-63
2021/08/15 06:57:59;;;;;;;20.75;14.48;;;27.40;68.80;;;;;;6078934;28;84257;-62
2021/08/15 07:01:03;;;;;;;18.88;13.75;;;27.40;67.50;;;;;;6083103;28;83826;-62
2021/08/15 07:04:03;;;;;;;20.67;13.48;;;27.40;67.00;;;;;;6081876;28;83557;-62
2021/08/15 07:07:04;;;;;;;18.08;11.98;;;27.40;66.70;;;;;;6105551;28;83175;-63
2021/08/15 07:10:04;;;;;;;19.08;13.40;;;27.40;66.60;;;;;;6106521;28;82975;-64
2021/08/15 07:13:05;;;;;;;16.95;12.90;;;27.40;67.30;;;;;;6106272;28;84042;-63
2021/08/15 07:16:06;;;;;;;18.15;12.20;;;27.40;66.90;;;;;;6109652;28;83082;-63
2021/08/15 07:19:06;;;;;;;20.23;12.25;;;27.40;66.50;;;;;;6110267;28;83573;-62
2021/08/15 07:22:06;;;;;;;15.52;11.13;;;27.50;65.70;;;;;;6110167;28;83346;-64
2021/08/15 07:25:10;;;;;;;16.75;11.40;;;27.50;64.70;;;;;;6107249;28;88530;-65
2021/08/15 07:28:13;;;;;;;14.65;11.45;;;27.50;64.50;;;;;;6106947;28;84373;-66
2021/08/15 07:31:14;;;;;;;17.13;10.88;;;27.50;64.90;;;;;;6106405;28;84066;-64
2021/08/15 07:34:17;;;;;;;15.75;10.30;;;27.50;65.10;;;;;;6102784;28;83171;-64
2021/08/15 07:37:18;;;;;;;18.33;10.63;;;27.50;64.40;;;;;;6109730;28;83352;-63
2021/08/15 07:40:18;;;;;;;14.95;10.55;;;27.50;63.20;;;;;;6087843;28;83488;-63
2021/08/15 07:43:19;;;;;;;19.35;10.25;;;27.60;63.10;;;;;;6086564;28;84334;-63
2021/08/15 07:46:19;;;;;;;14.13;10.32;;;27.60;63.00;;;;;;6082953;28;85452;-63
2021/08/15 07:49:20;;;;;;;15.82;11.38;;;27.70;63.20;;;;;;6076628;28;83419;-64
2021/08/15 07:52:20;;;;;;;16.83;10.07;;;27.70;63.60;;;;;;6089367;28;83590;-65
2021/08/15 07:55:21;;;;;;;18.27;10.65;;;27.70;63.00;;;;;;6096865;28;83095;-63
2021/08/15 07:58:21;;;;;;;11.27;9.23;;;27.80;63.40;;;;;;6104236;28;83322;-63
2021/08/15 08:01:22;;;;;;;16.48;10.95;;;27.80;63.00;;;;;;6105707;28;83161;-64
2021/08/15 08:04:22;;;;;;;14.20;9.85;;;27.80;62.80;;;;;;6100372;28;85325;-63
2021/08/15 08:07:24;;;;;;;17.38;10.43;;;27.80;63.10;;;;;;6104952;28;82984;-63
2021/08/15 08:10:25;;;;;;;15.90;10.80;;;27.90;63.30;;;;;;6097675;28;83087;-65
2021/08/15 08:13:25;;;;;;;13.32;10.18;;;27.90;62.30;;;;;;6103995;28;83308;-64
2021/08/15 08:16:28;;;;;;;13.52;10.02;;;27.90;62.00;;;;;;6084053;28;83979;-63
2021/08/15 08:19:29;;;;;;;15.13;10.75;;;27.90;62.40;;;;;;6105029;28;84339;-63
2021/08/15 08:22:29;;;;;;;20.92;9.90;;;27.90;62.70;;;;;;6107188;28;83032;-63
2021/08/15 08:25:30;;;;;;;14.75;10.45;;;28.00;61.50;;;;;;6113016;28;82722;-64
2021/08/15 08:28:30;;;;;;;17.05;10.93;;;28.00;60.80;;;;;;6103430;28;82920;-64
2021/08/15 08:31:31;;;;;;;16.30;9.95;;;28.00;61.10;;;;;;6110088;28;84476;-64
2021/08/15 08:34:34;;;;;;;12.90;9.73;;;28.00;60.70;;;;;;6108563;28;84118;-63
2021/08/15 08:37:34;;;;;;;15.05;9.57;;;28.10;60.90;;;;;;6111987;28;81976;-65
2021/08/15 08:40:35;;;;;;;15.40;9.75;;;28.10;61.40;;;;;;6112790;28;81575;-63
2021/08/15 08:43:35;;;;;;;14.20;9.88;;;28.10;61.20;;;;;;6116613;28;81178;-63
2021/08/15 08:46:36;;;;;;;17.08;10.15;;;28.10;61.40;;;;;;6114503;28;80990;-63
2021/08/15 08:49:36;;;;;;;16.00;10.05;;;28.20;60.10;;;;;;6098086;28;86364;-63
2021/08/15 08:52:37;;;;;;;14.02;9.68;;;28.20;59.90;;;;;;6108466;28;84936;-64
2021/08/15 08:55:37;;;;;;;12.35;8.90;;;28.20;60.20;;;;;;6112277;28;83039;-64
2021/08/15 08:58:37;;;;;;;13.13;9.00;;;28.30;59.70;;;;;;6110989;28;80651;-64
2021/08/15 09:01:38;;;;;;;11.90;9.35;;;28.30;59.60;;;;;;6111884;28;80666;-64
2021/08/15 09:04:39;;;;;;;13.50;8.32;;;28.40;59.20;;;;;;6114807;28;81597;-65
2021/08/15 09:07:39;;;;;;;16.65;9.60;;;28.40;59.60;;;;;;6111210;28;80306;-65
2021/08/15 09:10:40;;;;;;;14.35;8.70;;;28.40;59.20;;;;;;6112038;28;80199;-64
2021/08/15 09:13:40;;;;;;;14.93;9.10;;;28.40;59.70;;;;;;6118030;28;81297;-64
2021/08/15 09:16:41;;;;;;;13.00;9.20;;;28.50;58.60;;;;;;6109921;28;80463;-64
2021/08/15 09:19:41;;;;;;;10.90;8.02;;;28.70;58.60;;;;;;6110446;28;81348;-64
2021/08/15 09:22:42;;;;;;;12.93;8.25;;;28.70;59.10;;;;;;6118716;28;80351;-64
2021/08/15 09:25:42;;;;;;;10.63;8.45;;;28.80;58.10;;;;;;6111033;28;83438;-65
2021/08/15 09:28:43;;;;;;;16.67;8.18;;;28.80;58.40;;;;;;6111552;28;81569;-64
2021/08/15 09:31:43;;;;;;;11.23;7.82;;;28.80;59.00;;;;;;6119041;28;80343;-65
2021/08/15 09:34:44;;;;;;;15.82;9.48;;;28.80;58.40;;;;;;6113920;28;80280;-64
2021/08/15 09:37:45;;;;;;;18.65;8.55;;;28.70;59.50;;;;;;6113128;28;81144;-63
2021/08/15 09:40:46;;;;;;;12.07;9.07;;;28.70;59.60;;;;;;6112514;28;80418;-63
2021/08/15 09:43:46;;;;;;;18.73;9.60;;;28.80;60.10;;;;;;6114459;28;80383;-64
2021/08/15 09:46:47;;;;;;;12.73;9.23;;;28.70;61.10;;;;;;6081566;28;83254;-64
2021/08/15 09:49:47;;;;;;;14.00;8.07;;;28.50;61.10;;;;;;6111575;28;80293;-62
2021/08/15 09:52:47;;;;;;;21.30;8.73;;;28.70;60.00;;;;;;6109631;28;81699;-62
2021/08/15 09:55:48;;;;;;;12.52;8.35;;;28.60;60.10;;;;;;6110193;28;80678;-62
2021/08/15 09:58:48;;;;;;;10.23;8.27;;;28.40;60.70;;;;;;6108686;28;80235;-62
2021/08/15 10:01:49;;;;;;;10.27;7.80;;;28.10;61.10;;;;;;6109949;28;80391;-62
2021/08/15 10:04:49;;;;;;;15.60;9.40;;;28.10;61.30;;;;;;6107411;28;81285;-62
2021/08/15 10:07:50;;;;;;;18.17;11.02;;;28.00;61.80;;;;;;6111334;28;80981;-64
2021/08/15 10:10:50;;;;;;;16.60;9.35;;;27.90;61.00;;;;;;6107921;28;82978;-63
2021/08/15 10:13:51;;;;;;;24.48;13.82;;;28.10;59.90;;;;;;6109671;28;84282;-62
2021/08/15 10:16:51;;;;;;;22.25;11.57;;;28.20;60.60;;;;;;6109447;28;83240;-62
2021/08/15 10:19:52;;;;;;;22.67;12.73;;;28.40;59.40;;;;;;6109423;28;83741;-63
2021/08/15 10:22:52;;;;;;;27.45;12.27;;;28.40;59.70;;;;;;6108869;28;83067;-63
2021/08/15 10:25:52;;;;;;;22.85;11.98;;;28.20;60.90;;;;;;6109896;28;85502;-62
2021/08/15 10:28:53;;;;;;;23.58;11.05;;;28.10;61.40;;;;;;6109230;28;84267;-62
2021/08/15 10:31:53;;;;;;;18.17;10.75;;;28.00;61.80;;;;;;6112188;28;83274;-63
2021/08/15 10:34:54;;;;;;;14.20;9.48;;;28.00;61.50;;;;;;6105284;28;82994;-63
2021/08/15 10:37:55;;;;;;;17.35;11.43;;;28.10;60.40;;;;;;6091786;28;83124;-63
2021/08/15 10:40:55;;;;;;;19.13;11.35;;;28.10;60.80;;;;;;6088483;28;83146;-63
2021/08/15 10:43:56;;;;;;;15.68;9.75;;;28.00;61.00;;;;;;6107393;28;82879;-62
2021/08/15 10:46:57;;;;;;;14.07;10.13;;;28.10;61.40;;;;;;6109890;28;82932;-64
2021/08/15 10:49:57;;;;;;;20.30;10.13;;;28.20;61.30;;;;;;6107046;28;83138;-61
2021/08/15 10:52:58;;;;;;;12.60;9.15;;;28.10;61.70;;;;;;6106084;28;83573;-62
2021/08/15 10:55:58;;;;;;;14.82;9.43;;;28.20;62.70;;;;;;6109609;28;84076;-63
2021/08/15 10:58:59;;;;;;;17.95;9.90;;;28.30;63.20;;;;;;6110665;28;81287;-63
2021/08/15 11:01:59;;;;;;;19.92;10.88;;;28.30;63.90;;;;;;6110007;28;80886;-64
2021/08/15 11:05:00;;;;;;;19.73;11.13;;;28.30;63.80;;;;;;6106745;28;83004;-64
2021/08/15 11:08:00;;;;;;;20.48;10.52;;;28.20;64.30;;;;;;6107043;28;83251;-64
2021/08/15 11:11:01;;;;;;;21.85;12.02;;;28.10;64.60;;;;;;6103077;28;83284;-64
2021/08/15 11:14:01;;;;;;;18.48;10.57;;;28.10;65.10;;;;;;6107008;28;85200;-64
2021/08/15 11:17:02;;;;;;;16.77;10.65;;;28.00;65.40;;;;;;6110469;28;83568;-64
2021/08/15 11:20:02;;;;;;;14.18;9.82;;;28.10;65.70;;;;;;6111436;28;82876;-62
2021/08/15 11:23:03;;;;;;;14.27;10.05;;;28.20;65.20;;;;;;6117085;28;83560;-62
2021/08/15 11:26:03;;;;;;;16.73;10.05;;;28.20;65.20;;;;;;6109097;28;83905;-62
2021/08/15 11:29:04;;;;;;;15.35;9.70;;;28.20;64.80;;;;;;6107984;28;83510;-63
2021/08/15 11:32:05;;;;;;;13.15;9.07;;;28.30;63.40;;;;;;6114741;28;84065;-63
2021/08/15 11:35:06;;;;;;;15.05;9.35;;;28.50;64.10;;;;;;6095892;28;82524;-61
2021/08/15 11:38:15;;;;;;;17.35;10.15;;;28.70;62.70;;;;;;6109991;28;80350;-62
2021/08/15 11:41:15;;;;;;;11.63;8.93;;;28.80;62.10;;;;;;6093113;28;83267;-61
2021/08/15 11:44:16;;;;;;;19.77;9.95;;;28.70;62.70;;;;;;6111640;28;82704;-63
2021/08/15 11:47:17;;;;;;;13.95;9.07;;;28.60;63.00;;;;;;6107227;28;82643;-63
2021/08/15 11:50:17;;;;;;;13.85;8.88;;;28.80;61.80;;;;;;6114961;28;80847;-62
2021/08/15 11:53:18;;;;;;;17.30;7.63;;;29.00;60.10;;;;;;6111514;28;80503;-63
2021/08/15 11:56:19;;;;;;;11.13;7.45;;;29.10;58.40;;;;;;6111268;28;80147;-63
2021/08/15 11:59:20;;;;;;;14.80;9.95;;;29.10;59.20;;;;;;6120734;28;81750;-63
2021/08/15 12:02:20;;;;;;;16.60;9.48;;;29.00;58.50;;;;;;6115308;28;80377;-62
2021/08/15 12:05:21;;;;;;;14.10;8.65;;;29.00;58.70;;;;;;6109142;28;81101;-61
2021/08/15 12:08:21;;;;;;;13.05;8.43;;;29.20;59.30;;;;;;6113013;28;81962;-62
2021/08/15 12:11:22;;;;;;;11.48;8.45;;;29.10;59.10;;;;;;6118088;28;80283;-61
2021/08/15 12:14:23;;;;;;;14.88;8.60;;;29.10;59.40;;;;;;6108985;28;83074;-61
2021/08/15 12:17:24;;;;;;;12.95;9.55;;;29.20;58.60;;;;;;6114331;28;81712;-62
2021/08/15 12:20:24;;;;;;;14.15;8.57;;;29.10;59.30;;;;;;6110028;28;80699;-62
2021/08/15 12:23:25;;;;;;;12.90;8.80;;;29.20;58.90;;;;;;6105345;28;82292;-62
2021/08/15 12:26:25;;;;;;;10.88;8.93;;;29.20;59.20;;;;;;6102347;28;80699;-63
2021/08/15 12:29:26;;;;;;;13.13;9.57;;;29.30;59.10;;;;;;6111429;28;81699;-63
2021/08/15 12:32:26;;;;;;;13.68;9.02;;;29.30;59.30;;;;;;6111666;28;80595;-62
2021/08/15 12:35:27;;;;;;;14.10;9.07;;;29.10;59.90;;;;;;6110465;28;80551;-61
2021/08/15 12:38:27;;;;;;;14.57;9.50;;;29.10;60.10;;;;;;6106734;28;80421;-62
2021/08/15 12:41:29;;;;;;;12.20;9.23;;;29.00;60.60;;;;;;6106175;28;80551;-63
2021/08/15 12:44:29;;;;;;;15.00;10.20;;;28.80;61.00;;;;;;6107080;28;80608;-63
2021/08/15 12:47:30;;;;;;;11.68;10.10;;;28.70;61.10;;;;;;6106141;28;89808;-62
2021/08/15 12:50:30;;;;;;;14.88;10.63;;;28.60;61.40;;;;;;6110747;28;83203;-62
2021/08/15 12:53:32;;;;;;;12.45;9.93;;;28.60;61.40;;;;;;6090839;28;83733;-61
2021/08/15 12:56:33;;;;;;;13.95;9.73;;;28.80;60.60;;;;;;6111276;28;84210;-62
2021/08/15 12:59:33;;;;;;;13.52;9.50;;;28.80;61.00;;;;;;6113037;28;80538;-61
2021/08/15 13:02:34;;;;;;;15.52;9.77;;;28.70;61.50;;;;;;6114065;28;81069;-62
2021/08/15 13:05:34;;;;;;;15.55;9.88;;;28.70;61.60;;;;;;6112915;28;80885;-64
2021/08/15 13:08:35;;;;;;;15.23;8.82;;;28.70;61.50;;;;;;6108982;28;80683;-62
2021/08/15 13:11:35;;;;;;;15.05;9.75;;;28.60;61.50;;;;;;6108140;28;80608;-61
2021/08/15 13:14:36;;;;;;;13.00;10.32;;;28.50;61.60;;;;;;6111963;28;80502;-62
2021/08/15 13:17:36;;;;;;;14.23;10.30;;;28.50;61.20;;;;;;6108418;28;84622;-62
2021/08/15 13:20:39;;;;;;;11.88;9.75;;;28.40;61.20;;;;;;6110152;28;84154;-60
2021/08/15 13:23:39;;;;;;;12.52;10.55;;;28.40;60.90;;;;;;6104586;28;82372;-61
2021/08/15 13:26:40;;;;;;;15.20;10.43;;;28.40;60.60;;;;;;6107516;28;83387;-62
2021/08/15 13:29:40;;;;;;;16.77;10.52;;;28.50;60.60;;;;;;6101705;28;82997;-62
2021/08/15 13:32:41;;;;;;;16.25;10.55;;;28.50;59.80;;;;;;6109309;28;83230;-61
2021/08/15 13:35:41;;;;;;;14.48;9.55;;;28.60;59.90;;;;;;6091951;28;84650;-62
2021/08/15 13:38:42;;;;;;;13.30;10.02;;;28.50;59.50;;;;;;6112067;28;84449;-63
2021/08/15 13:41:42;;;;;;;11.65;9.68;;;28.60;58.90;;;;;;6112099;28;82892;-62
2021/08/15 13:44:43;;;;;;;14.30;9.45;;;28.70;58.60;;;;;;6094742;28;83497;-63
2021/08/15 13:47:43;;;;;;;12.30;8.85;;;28.60;58.50;;;;;;6107628;28;80618;-61
2021/08/15 13:50:44;;;;;;;14.77;9.68;;;28.60;58.60;;;;;;6107861;28;80493;-63
2021/08/15 13:53:44;;;;;;;11.25;9.40;;;28.60;58.30;;;;;;6112854;28;80857;-63
2021/08/15 13:56:45;;;;;;;13.23;8.90;;;28.50;58.20;;;;;;6110084;28;80969;-62
2021/08/15 13:59:45;;;;;;;11.60;9.50;;;28.50;57.70;;;;;;6111954;28;81652;-62
2021/08/15 14:02:46;;;;;;;10.75;8.25;;;28.60;56.00;;;;;;6112318;28;80801;-61
2021/08/15 14:05:46;;;;;;;13.90;7.32;;;28.60;56.10;;;;;;6109511;28;80870;-62
2021/08/15 14:08:47;;;;;;;10.02;8.32;;;28.60;54.80;;;;;;6109839;28;80451;-60
2021/08/15 14:11:47;;;;;;;14.13;9.02;;;28.60;55.10;;;;;;6114357;28;81391;-62
2021/08/15 14:14:48;;;;;;;13.50;8.70;;;28.70;54.80;;;;;;6116405;28;80480;-62
2021/08/15 14:17:48;;;;;;;16.70;8.43;;;28.70;54.30;;;;;;6114641;28;80707;-60
2021/08/15 14:20:49;;;;;;;12.02;8.75;;;28.70;53.70;;;;;;6096120;28;81867;-63
2021/08/15 14:23:50;;;;;;;14.77;8.48;;;28.80;54.30;;;;;;6115906;28;81546;-62
2021/08/15 14:26:50;;;;;;;9.38;7.65;;;28.70;54.80;;;;;;6113911;28;81932;-63
2021/08/15 14:29:51;;;;;;;10.40;8.23;;;28.60;54.10;;;;;;6115397;28;80988;-61
2021/08/15 14:32:52;;;;;;;12.23;7.93;;;28.60;55.10;;;;;;6109297;28;80893;-64
2021/08/15 14:35:52;;;;;;;11.10;7.68;;;28.60;54.30;;;;;;6111192;28;80312;-61
2021/08/15 14:38:53;;;;;;;14.30;8.85;;;28.60;54.80;;;;;;6108447;28;83426;-62
2021/08/15 14:41:53;;;;;;;14.27;8.27;;;28.60;54.70;;;;;;6109747;28;80638;-61
2021/08/15 14:44:53;;;;;;;22.52;9.68;;;28.50;55.10;;;;;;6095343;28;80640;-62
2021/08/15 14:47:54;;;;;;;17.10;8.95;;;28.50;55.90;;;;;;6087072;28;80355;-62
2021/08/15 14:50:54;;;;;;;11.88;8.32;;;28.50;56.30;;;;;;6086614;28;81470;-63
2021/08/15 14:53:55;;;;;;;19.00;8.35;;;28.50;56.10;;;;;;6085504;28;80580;-61
2021/08/15 14:56:55;;;;;;;13.73;8.55;;;28.50;56.30;;;;;;6085653;28;81050;-61
2021/08/15 14:59:56;;;;;;;14.10;8.77;;;28.40;56.50;;;;;;6084954;28;80539;-62
2021/08/15 15:02:56;;;;;;;13.00;9.10;;;28.30;56.40;;;;;;6086554;28;81681;-62
2021/08/15 15:05:57;;;;;;;14.60;9.02;;;28.30;56.50;;;;;;6095629;28;80313;-65
2021/08/15 15:08:57;;;;;;;10.40;8.60;;;28.30;56.60;;;;;;6103237;28;80652;-63
2021/08/15 15:11:58;;;;;;;12.43;8.85;;;28.40;57.00;;;;;;6086613;28;81547;-64
2021/08/15 15:14:58;;;;;;;10.85;8.63;;;28.30;56.60;;;;;;6085537;28;82781;-64
2021/08/15 15:17:59;;;;;;;16.17;8.90;;;28.30;56.20;;;;;;6086720;28;80643;-62
2021/08/15 15:21:00;;;;;;;13.02;8.20;;;28.20;55.90;;;;;;6086221;28;80333;-61